createdAt,value
2023-11-24T00:00:19.284Z,0.70
2023-11-24T00:05:48.918Z,0.50
2023-11-24T00:10:59.986Z,1.00
2023-11-24T00:16:11.460Z,0.60
2023-11-24T00:21:21.625Z,0.80
2023-11-24T00:26:31.659Z,1.10
2023-11-24T00:31:41.211Z,1.00
2023-11-24T00:36:50.991Z,0.50
2023-11-24T00:42:01.894Z,0.90
2023-11-24T00:47:12.259Z,1.10
2023-11-24T00:52:22.105Z,1.10
2023-11-24T00:57:31.878Z,1.10
2023-11-24T01:02:41.646Z,0.80
2023-11-24T01:07:51.639Z,1.20
2023-11-24T01:13:01.238Z,0.90
2023-11-24T01:18:11.837Z,0.60
2023-11-24T01:23:22.294Z,0.50
2023-11-24T01:28:31.868Z,0.70
2023-11-24T01:33:41.593Z,0.40
2023-11-24T01:38:52.095Z,0.70
2023-11-24T01:44:06.022Z,0.80
2023-11-24T01:49:16.031Z,0.30
2023-11-24T01:54:27.597Z,0.70
2023-11-24T01:59:39.078Z,0.50
2023-11-24T02:04:48.726Z,0.50
2023-11-24T02:09:58.502Z,0.50
2023-11-24T02:15:11.380Z,0.70
2023-11-24T02:20:21.493Z,0.30
2023-11-24T02:25:31.086Z,0.50
2023-11-24T02:30:41.299Z,0.30
2023-11-24T02:35:51.157Z,0.30
2023-11-24T02:41:01.676Z,0.30
2023-11-24T02:46:15.201Z,0.30
2023-11-24T02:51:25.877Z,0.30
2023-11-24T02:56:35.603Z,0.20
2023-11-24T03:01:45.277Z,0.20
2023-11-24T03:06:55.223Z,0.30
2023-11-24T03:12:05.396Z,0.70
2023-11-24T03:17:14.881Z,0.50
2023-11-24T03:22:24.592Z,0.90
2023-11-24T03:27:34.512Z,0.50
2023-11-24T03:32:44.103Z,0.90
2023-11-24T03:37:53.826Z,0.40
2023-11-24T03:43:04.208Z,1.00
2023-11-24T03:48:21.046Z,1.10
2023-11-24T03:53:30.974Z,0.40
2023-11-24T03:58:40.479Z,0.50
2023-11-24T04:03:53.048Z,1.10
2023-11-24T04:09:02.794Z,0.80
2023-11-24T04:14:12.376Z,0.70
2023-11-24T04:19:22.056Z,0.40
2023-11-24T04:24:31.962Z,0.60
2023-11-24T04:29:42.119Z,0.50
2023-11-24T04:34:51.806Z,0.70
2023-11-24T04:40:01.712Z,0.50
2023-11-24T04:45:14.020Z,0.20
2023-11-24T04:50:24.011Z,0.80
2023-11-24T04:55:34.574Z,1.30
2023-11-24T05:00:44.218Z,1.90
2023-11-24T05:05:53.807Z,0.90
2023-11-24T05:11:03.909Z,0.80
2023-11-24T05:16:14.093Z,0.90
2023-11-24T05:21:23.739Z,0.60
2023-11-24T05:26:34.048Z,0.20
2023-11-24T05:31:43.701Z,0.50
2023-11-24T05:36:53.310Z,0.30
2023-11-24T05:42:05.579Z,0.70
2023-11-24T05:47:15.336Z,0.70
2023-11-24T05:52:25.170Z,1.00
2023-11-24T05:57:35.398Z,0.60
2023-11-24T06:02:45.067Z,0.90
2023-11-24T06:07:56.446Z,0.30
2023-11-24T06:13:07.966Z,0.70
2023-11-24T06:18:18.021Z,0.70
2023-11-24T06:23:27.550Z,0.40
2023-11-24T06:28:37.236Z,0.90
2023-11-24T06:33:47.365Z,0.70
2023-11-24T06:38:57.234Z,1.00
2023-11-24T06:44:07.849Z,1.20
2023-11-24T06:49:18.893Z,1.30
2023-11-24T06:54:29.121Z,0.80
2023-11-24T06:59:39.536Z,1.00
2023-11-24T07:04:51.168Z,0.90
2023-11-24T07:10:02.875Z,1.00
2023-11-24T07:15:14.814Z,0.90
2023-11-24T07:20:25.008Z,0.90
2023-11-24T07:25:34.773Z,0.90
2023-11-24T07:30:44.797Z,0.90
2023-11-24T07:35:54.406Z,1.00
2023-11-24T07:41:06.162Z,0.60
2023-11-24T07:46:15.971Z,0.40
2023-11-24T07:51:26.139Z,1.00
2023-11-24T07:56:38.074Z,0.50
2023-11-24T08:01:48.061Z,0.80
2023-11-24T08:06:57.853Z,0.70
2023-11-24T08:12:12.360Z,9.30
2023-11-24T08:17:23.849Z,10.20
2023-11-24T08:22:33.758Z,2.40
2023-11-24T08:27:46.175Z,0.70
2023-11-24T08:32:56.087Z,0.80
2023-11-24T08:38:06.376Z,2.00
2023-11-24T08:43:16.363Z,3.30
2023-11-24T08:48:26.417Z,1.60
2023-11-24T08:53:36.390Z,0.40
2023-11-24T08:58:46.120Z,0.60
2023-11-24T09:03:56.038Z,0.20
2023-11-24T09:09:08.663Z,0.30
2023-11-24T09:14:18.767Z,0.50
2023-11-24T09:19:28.364Z,0.30
2023-11-24T09:24:38.140Z,0.40
2023-11-24T09:29:49.271Z,0.50
2023-11-24T09:34:59.479Z,0.30
2023-11-24T09:40:18.073Z,0.60
2023-11-24T09:45:28.669Z,0.30
2023-11-24T09:50:41.117Z,0.80
2023-11-24T09:55:50.826Z,0.30
2023-11-24T10:01:09.120Z,0.40
2023-11-24T10:06:19.296Z,0.50
2023-11-24T10:11:34.879Z,0.20
2023-11-24T10:16:45.269Z,0.30
2023-11-24T10:21:57.432Z,0.50
2023-11-24T10:27:23.788Z,0.40
2023-11-24T10:32:33.579Z,0.40
2023-11-24T10:37:43.893Z,0.50
2023-11-24T10:42:58.679Z,0.40
2023-11-24T10:48:22.240Z,0.40
2023-11-24T10:53:38.568Z,0.40
2023-11-24T10:58:53.624Z,0.40
2023-11-24T11:04:04.457Z,0.30
2023-11-24T11:09:31.118Z,0.50
2023-11-24T11:14:41.504Z,2.50
2023-11-24T11:20:06.933Z,0.60
2023-11-24T11:25:44.896Z,1.30
2023-11-24T11:30:59.012Z,0.50
2023-11-24T11:36:13.216Z,0.60
2023-11-24T11:41:46.168Z,0.90
2023-11-24T11:47:26.283Z,0.60
2023-11-24T11:52:36.976Z,0.60
2023-11-24T11:57:53.482Z,1.00
2023-11-24T12:03:06.630Z,1.30
2023-11-24T12:08:19.005Z,1.00
2023-11-24T12:13:30.378Z,0.70
2023-11-24T12:18:40.305Z,0.70
2023-11-24T12:23:50.824Z,0.80
2023-11-24T12:29:04.291Z,0.40
2023-11-24T12:34:24.020Z,0.70
2023-11-24T12:39:35.751Z,0.70
2023-11-24T12:44:45.584Z,0.60
2023-11-24T12:50:08.655Z,0.70
2023-11-24T12:55:19.923Z,0.60
2023-11-24T13:00:30.337Z,0.40
2023-11-24T13:05:40.675Z,0.60
2023-11-24T13:10:54.688Z,0.80
2023-11-24T13:16:06.772Z,1.70
2023-11-24T13:21:16.970Z,0.60
2023-11-24T13:26:27.418Z,0.60
2023-11-24T13:31:42.834Z,2.40
2023-11-24T13:36:52.744Z,1.00
2023-11-24T13:42:02.470Z,1.30
2023-11-24T13:47:14.630Z,1.90
2023-11-24T13:52:24.656Z,2.70
2023-11-24T13:57:34.906Z,3.00
2023-11-24T14:02:46.812Z,2.60
2023-11-24T14:07:56.708Z,2.20
2023-11-24T14:13:07.388Z,1.10
2023-11-24T14:18:17.148Z,1.00
2023-11-24T14:23:27.128Z,2.60
2023-11-24T14:28:37.718Z,5.50
2023-11-24T14:33:47.383Z,4.30
2023-11-24T14:38:58.193Z,2.80
2023-11-24T14:44:09.688Z,6.00
2023-11-24T14:49:19.849Z,6.10
2023-11-24T14:54:31.442Z,4.30
2023-11-24T14:59:41.320Z,3.00
2023-11-24T15:04:51.180Z,2.80
2023-11-24T15:10:01.246Z,2.40
2023-11-24T15:15:13.592Z,3.00
2023-11-24T15:20:27.500Z,3.30
2023-11-24T15:25:49.602Z,3.40
2023-11-24T15:31:01.288Z,3.90
2023-11-24T15:36:14.640Z,3.50
2023-11-24T15:41:37.404Z,2.20
2023-11-24T15:46:47.480Z,3.90
2023-11-24T15:51:59.709Z,4.80
2023-11-24T15:57:11.522Z,4.80
2023-11-24T16:02:26.802Z,5.80
2023-11-24T16:07:36.701Z,6.10
2023-11-24T16:12:50.077Z,6.00
2023-11-24T16:18:00.469Z,3.70
2023-11-24T16:23:10.391Z,2.20
2023-11-24T16:28:20.141Z,2.90
2023-11-24T16:33:30.704Z,3.00
2023-11-24T16:38:41.148Z,2.60
2023-11-24T16:43:50.913Z,2.70
2023-11-24T16:49:00.565Z,2.50
2023-11-24T16:54:11.196Z,4.10
2023-11-24T16:59:22.128Z,2.50
2023-11-24T17:04:32.172Z,4.30
2023-11-24T17:09:43.036Z,3.10
2023-11-24T17:14:53.512Z,2.30
2023-11-24T17:20:03.517Z,1.70
2023-11-24T17:25:21.535Z,2.90
2023-11-24T17:30:38.204Z,3.60
2023-11-24T17:35:49.170Z,9.80
2023-11-24T17:40:59.605Z,9.10
2023-11-24T17:46:09.631Z,9.40
2023-11-24T17:51:19.708Z,8.60
2023-11-24T17:56:29.568Z,15.10
2023-11-24T18:01:39.941Z,13.90
2023-11-24T18:06:49.926Z,9.00
2023-11-24T18:11:59.915Z,7.80
2023-11-24T18:17:10.502Z,7.80
2023-11-24T18:22:20.692Z,2.90
2023-11-24T18:27:30.401Z,3.10
2023-11-24T18:32:40.642Z,2.10
2023-11-24T18:37:50.553Z,1.80
2023-11-24T18:43:01.292Z,1.80
2023-11-24T18:48:12.071Z,1.50
2023-11-24T18:53:21.724Z,2.30
2023-11-24T18:58:31.557Z,2.40
2023-11-24T19:03:41.254Z,3.90
2023-11-24T19:08:52.449Z,4.20
2023-11-24T19:14:03.093Z,5.80
2023-11-24T19:19:13.430Z,7.10
2023-11-24T19:24:23.110Z,4.60
2023-11-24T19:29:32.925Z,2.30
2023-11-24T19:34:42.835Z,1.60
2023-11-24T19:39:52.425Z,2.50
2023-11-24T19:45:02.548Z,2.40
2023-11-24T19:50:13.578Z,1.50
2023-11-24T19:55:23.609Z,2.20
2023-11-24T20:00:33.296Z,1.60
2023-11-24T20:05:42.969Z,2.30
2023-11-24T20:10:54.308Z,2.40
2023-11-24T20:16:04.078Z,1.10
2023-11-24T20:21:14.355Z,13.90
2023-11-24T20:26:24.606Z,11.90
2023-11-24T20:31:34.944Z,8.00
2023-11-24T20:36:45.297Z,7.20
2023-11-24T20:41:56.263Z,4.80
2023-11-24T20:47:06.127Z,3.70
2023-11-24T20:52:17.071Z,4.70
2023-11-24T20:57:26.940Z,3.40
2023-11-24T21:02:36.695Z,3.80
2023-11-24T21:07:46.412Z,3.30
2023-11-24T21:12:56.104Z,3.20
2023-11-24T21:18:06.945Z,3.90
2023-11-24T21:23:16.914Z,6.10
2023-11-24T21:28:27.233Z,5.90
2023-11-24T21:33:38.419Z,6.30
2023-11-24T21:38:48.049Z,6.50
2023-11-24T21:43:57.642Z,7.30
2023-11-24T21:49:08.152Z,6.70
2023-11-24T21:54:17.758Z,6.20
2023-11-24T21:59:28.043Z,6.00
2023-11-24T22:04:37.672Z,7.60
2023-11-24T22:09:47.238Z,7.20
2023-11-24T22:14:58.433Z,5.20
2023-11-24T22:20:12.230Z,4.60
2023-11-24T22:25:22.674Z,4.70
2023-11-24T22:30:32.820Z,5.20
2023-11-24T22:35:43.353Z,4.20
2023-11-24T22:40:53.028Z,3.90
2023-11-24T22:46:03.855Z,3.90
2023-11-24T22:51:20.743Z,3.80
2023-11-24T22:56:31.081Z,4.70
2023-11-24T23:01:41.278Z,3.90
2023-11-24T23:06:51.061Z,4.10
2023-11-24T23:12:00.755Z,4.40
2023-11-24T23:17:12.070Z,3.90
2023-11-24T23:22:31.201Z,3.10
2023-11-24T23:27:46.174Z,2.60
2023-11-24T23:33:03.489Z,3.00
2023-11-24T23:38:21.747Z,2.90
2023-11-24T23:43:31.633Z,3.10
2023-11-24T23:48:41.500Z,2.90
2023-11-24T23:53:51.037Z,2.50
2023-11-24T23:59:01.287Z,1.80
